createdAt,value
2023-04-02T00:00:19.534Z,10.29
2023-04-02T00:03:09.258Z,10.24
2023-04-02T00:05:51.463Z,10.21
2023-04-02T00:08:24.286Z,10.12
2023-04-02T00:10:55.202Z,10.02
2023-04-02T00:13:30.424Z,9.96
2023-04-02T00:16:00.577Z,9.91
2023-04-02T00:18:30.525Z,9.79
2023-04-02T00:21:09.590Z,9.73
2023-04-02T00:23:41.342Z,9.65
2023-04-02T00:26:24.120Z,9.59
2023-04-02T00:28:53.344Z,9.57
2023-04-02T00:31:23.200Z,9.55
2023-04-02T00:33:53.948Z,9.52
2023-04-02T00:36:26.302Z,9.45
2023-04-02T00:38:57.392Z,9.40
2023-04-02T00:41:29.756Z,9.37
2023-04-02T00:44:00.465Z,9.38
2023-04-02T00:46:34.059Z,9.34
2023-04-02T00:49:09.976Z,9.27
2023-04-02T00:51:44.938Z,9.23
2023-04-02T00:54:15.140Z,9.26
2023-04-02T00:56:46.710Z,9.29
2023-04-02T00:59:24.947Z,9.28
2023-04-02T01:02:00.886Z,9.27
2023-04-02T01:04:34.001Z,9.23
2023-04-02T01:07:08.720Z,9.28
2023-04-02T01:10:01.998Z,9.27
2023-04-02T01:12:48.349Z,9.26
2023-04-02T01:15:18.395Z,9.26
2023-04-02T01:18:04.092Z,9.25
2023-04-02T01:21:01.306Z,9.28
2023-04-02T01:23:34.112Z,9.29
2023-04-02T01:26:14.292Z,9.29
2023-04-02T01:28:55.355Z,9.30
2023-04-02T01:31:26.821Z,9.32
2023-04-02T01:33:56.136Z,9.30
2023-04-02T01:36:36.876Z,9.29
2023-04-02T01:39:14.686Z,9.33
2023-04-02T01:41:48.614Z,9.33
2023-04-02T01:44:25.408Z,9.34
2023-04-02T01:46:55.030Z,9.32
2023-04-02T01:49:24.612Z,9.31
2023-04-02T01:51:56.564Z,9.32
2023-04-02T01:54:28.268Z,9.32
2023-04-02T01:56:57.794Z,9.33
2023-04-02T01:59:28.390Z,9.36
2023-04-02T02:02:01.364Z,9.39
2023-04-02T02:04:31.651Z,9.42
2023-04-02T02:07:01.977Z,9.44
2023-04-02T02:09:33.115Z,9.47
2023-04-02T02:12:03.639Z,9.49
2023-04-02T02:14:33.396Z,9.47
2023-04-02T02:17:12.769Z,9.49
2023-04-02T02:19:45.578Z,9.49
2023-04-02T02:22:22.015Z,9.50
2023-04-02T02:24:51.328Z,9.51
2023-04-02T02:27:47.174Z,9.53
2023-04-02T02:30:20.011Z,9.54
2023-04-02T02:32:55.913Z,9.52
2023-04-02T02:35:30.942Z,9.52
2023-04-02T02:38:07.881Z,9.53
2023-04-02T02:40:44.164Z,9.55
2023-04-02T02:43:16.313Z,9.57
2023-04-02T02:45:48.543Z,9.57
2023-04-02T02:48:21.293Z,9.59
2023-04-02T02:50:51.316Z,9.59
2023-04-02T02:53:23.216Z,9.59
2023-04-02T02:55:56.232Z,9.59
2023-04-02T02:58:27.695Z,9.60
2023-04-02T03:00:56.993Z,9.61
2023-04-02T03:03:30.730Z,9.56
2023-04-02T03:06:03.312Z,9.56
2023-04-02T03:08:37.889Z,9.55
2023-04-02T03:11:12.730Z,9.51
2023-04-02T03:13:48.447Z,9.52
2023-04-02T03:16:23.363Z,9.52
2023-04-02T03:18:58.325Z,9.52
2023-04-02T03:21:33.938Z,9.46
2023-04-02T03:24:09.106Z,9.48
2023-04-02T03:26:43.705Z,9.47
2023-04-02T03:29:18.359Z,9.50
2023-04-02T03:31:53.706Z,9.51
2023-04-02T03:34:29.182Z,9.51
2023-04-02T03:37:04.708Z,9.53
2023-04-02T03:39:39.067Z,9.56
2023-04-02T03:42:13.989Z,9.59
2023-04-02T03:44:49.612Z,9.61
2023-04-02T03:47:25.786Z,9.61
2023-04-02T03:50:00.414Z,9.62
2023-04-02T03:52:30.811Z,9.62
2023-04-02T03:55:02.822Z,9.62
2023-04-02T03:57:36.394Z,9.61
2023-04-02T04:00:15.852Z,9.61
2023-04-02T04:02:47.899Z,9.61
2023-04-02T04:05:28.325Z,9.62
2023-04-02T04:08:02.244Z,9.61
2023-04-02T04:10:32.849Z,9.56
2023-04-02T04:13:06.405Z,9.54
2023-04-02T04:15:39.686Z,9.53
2023-04-02T04:18:18.778Z,9.54
2023-04-02T04:20:55.909Z,9.53
2023-04-02T04:23:30.354Z,9.53
2023-04-02T04:26:08.939Z,9.52
2023-04-02T04:28:57.707Z,9.54
2023-04-02T04:31:33.421Z,9.56
2023-04-02T04:34:08.645Z,9.57
2023-04-02T04:36:53.255Z,9.54
2023-04-02T04:39:29.543Z,9.53
2023-04-02T04:42:03.080Z,9.56
2023-04-02T04:44:40.610Z,9.56
2023-04-02T04:47:15.437Z,9.56
2023-04-02T04:49:47.441Z,9.59
2023-04-02T04:52:20.389Z,9.57
2023-04-02T04:54:49.456Z,9.63
2023-04-02T04:57:29.228Z,9.70
2023-04-02T05:00:06.534Z,9.76
2023-04-02T05:02:42.594Z,9.71
2023-04-02T05:05:20.060Z,9.67
2023-04-02T05:07:57.003Z,9.67
2023-04-02T05:10:37.214Z,9.63
2023-04-02T05:13:11.328Z,9.59
2023-04-02T05:15:46.433Z,9.62
2023-04-02T05:18:25.062Z,9.70
2023-04-02T05:20:59.557Z,9.72
2023-04-02T05:23:30.899Z,9.70
2023-04-02T05:26:06.579Z,9.74
2023-04-02T05:28:43.020Z,9.71
2023-04-02T05:31:16.979Z,9.74
2023-04-02T05:33:49.053Z,9.72
2023-04-02T05:36:22.972Z,9.71
2023-04-02T05:38:53.412Z,9.68
2023-04-02T05:41:26.910Z,9.64
2023-04-02T05:44:06.135Z,9.66
2023-04-02T05:46:40.847Z,9.64
2023-04-02T05:49:19.143Z,9.65
2023-04-02T05:51:52.593Z,9.70
2023-04-02T05:54:26.920Z,9.78
2023-04-02T05:57:00.554Z,9.85
2023-04-02T05:59:31.998Z,9.89
2023-04-02T06:02:04.338Z,9.90
2023-04-02T06:04:37.641Z,9.88
2023-04-02T06:07:11.769Z,9.91
2023-04-02T06:09:45.584Z,9.94
2023-04-02T06:12:26.456Z,9.98
2023-04-02T06:14:55.963Z,10.04
2023-04-02T06:17:26.716Z,10.08
2023-04-02T06:19:59.769Z,10.07
2023-04-02T06:22:36.239Z,10.07
2023-04-02T06:25:11.570Z,10.13
2023-04-02T06:27:43.878Z,10.18
2023-04-02T06:30:20.522Z,10.19
2023-04-02T06:32:49.494Z,10.17
2023-04-02T06:35:18.461Z,10.12
2023-04-02T06:37:50.598Z,10.17
2023-04-02T06:40:33.564Z,10.19
2023-04-02T06:43:13.665Z,10.24
2023-04-02T06:45:46.405Z,10.30
2023-04-02T06:48:18.058Z,10.30
2023-04-02T06:50:51.283Z,10.25
2023-04-02T06:53:25.937Z,10.24
2023-04-02T06:55:59.638Z,10.25
2023-04-02T06:58:28.693Z,10.30
2023-04-02T07:00:58.098Z,10.31
2023-04-02T07:03:29.167Z,10.30
2023-04-02T07:05:59.995Z,10.31
2023-04-02T07:08:29.020Z,10.33
2023-04-02T07:10:58.058Z,10.37
2023-04-02T07:13:27.090Z,10.37
2023-04-02T07:15:56.291Z,10.34
2023-04-02T07:18:28.194Z,10.34
2023-04-02T07:20:57.819Z,10.45
2023-04-02T07:23:27.160Z,10.53
2023-04-02T07:25:56.959Z,10.56
2023-04-02T07:28:26.279Z,10.59
2023-04-02T07:30:55.842Z,10.61
2023-04-02T07:33:26.569Z,10.69
2023-04-02T07:35:57.468Z,10.74
2023-04-02T07:38:26.498Z,10.74
2023-04-02T07:40:55.590Z,10.77
2023-04-02T07:43:24.544Z,10.83
2023-04-02T07:45:53.490Z,10.84
2023-04-02T07:48:22.802Z,10.86
2023-04-02T07:50:51.803Z,10.85
2023-04-02T07:53:29.325Z,10.86
2023-04-02T07:56:00.554Z,10.85
2023-04-02T07:58:30.849Z,10.93
2023-04-02T08:01:01.104Z,11.00
2023-04-02T08:03:30.830Z,11.05
2023-04-02T08:06:00.109Z,11.10
2023-04-02T08:08:29.077Z,11.17
2023-04-02T08:10:58.220Z,11.28
2023-04-02T08:13:27.328Z,11.41
2023-04-02T08:15:59.426Z,11.51
2023-04-02T08:18:28.855Z,11.59
2023-04-02T08:20:58.004Z,11.66
2023-04-02T08:23:27.756Z,11.73
2023-04-02T08:25:57.263Z,11.83
2023-04-02T08:28:26.579Z,11.84
2023-04-02T08:30:55.563Z,11.85
2023-04-02T08:33:25.513Z,11.84
2023-04-02T08:35:54.708Z,11.89
2023-04-02T08:38:24.044Z,11.98
2023-04-02T08:40:56.270Z,12.06
2023-04-02T08:43:55.529Z,12.14
2023-04-02T08:46:30.769Z,12.19
2023-04-02T08:49:03.276Z,12.18
2023-04-02T08:51:35.812Z,12.17
2023-04-02T08:54:16.930Z,12.21
2023-04-02T08:56:51.993Z,12.23
2023-04-02T08:59:30.696Z,12.19
2023-04-02T09:02:10.468Z,12.21
2023-04-02T09:04:41.180Z,12.22
2023-04-02T09:07:14.859Z,12.24
2023-04-02T09:09:47.955Z,12.25
2023-04-02T09:12:20.015Z,12.28
2023-04-02T09:14:58.658Z,12.32
2023-04-02T09:17:28.183Z,12.33
2023-04-02T09:20:01.648Z,12.37
2023-04-02T09:22:32.248Z,12.44
2023-04-02T09:25:03.667Z,12.47
2023-04-02T09:27:34.161Z,12.50
2023-04-02T09:30:07.446Z,12.57
2023-04-02T09:32:48.876Z,12.60
2023-04-02T09:35:26.015Z,12.66
2023-04-02T09:38:20.412Z,12.72
2023-04-02T09:40:59.139Z,12.80
2023-04-02T09:43:29.807Z,12.93
2023-04-02T09:46:01.387Z,13.03
2023-04-02T09:48:33.069Z,13.13
2023-04-02T09:51:15.952Z,13.23
2023-04-02T09:53:48.588Z,13.37
2023-04-02T09:56:21.139Z,13.43
2023-04-02T09:59:04.281Z,13.45
2023-04-02T10:01:34.949Z,13.44
2023-04-02T10:04:07.210Z,13.43
2023-04-02T10:06:36.170Z,13.43
2023-04-02T10:09:28.808Z,13.44
2023-04-02T10:12:00.088Z,13.44
2023-04-02T10:14:32.087Z,13.39
2023-04-02T10:17:08.317Z,13.37
2023-04-02T10:19:41.107Z,13.36
2023-04-02T10:22:15.822Z,13.37
2023-04-02T10:24:45.235Z,13.42
2023-04-02T10:27:25.033Z,13.41
2023-04-02T10:30:15.401Z,13.39
2023-04-02T10:32:50.654Z,13.37
2023-04-02T10:35:30.841Z,13.37
2023-04-02T10:38:15.290Z,13.37
2023-04-02T10:40:55.338Z,13.38
2023-04-02T10:43:59.326Z,13.41
2023-04-02T10:46:43.527Z,13.44
2023-04-02T10:49:24.432Z,13.46
2023-04-02T10:51:59.269Z,13.45
2023-04-02T10:54:39.280Z,13.46
2023-04-02T10:57:13.089Z,13.51
2023-04-02T10:59:47.314Z,13.57
2023-04-02T11:02:32.676Z,13.61
2023-04-02T11:05:16.972Z,13.61
2023-04-02T11:07:59.441Z,13.66
2023-04-02T11:10:32.690Z,13.66
2023-04-02T11:13:07.482Z,13.74
2023-04-02T11:15:38.134Z,13.78
2023-04-02T11:18:20.180Z,13.82
2023-04-02T11:21:06.798Z,13.86
2023-04-02T11:23:56.857Z,13.90
2023-04-02T11:26:42.860Z,13.91
2023-04-02T11:29:29.664Z,13.93
2023-04-02T11:32:33.759Z,13.94
2023-04-02T11:35:36.589Z,13.98
2023-04-02T11:39:04.560Z,13.98
2023-04-02T11:42:01.537Z,13.96
2023-04-02T11:44:30.562Z,13.97
2023-04-02T11:47:20.676Z,13.96
2023-04-02T11:50:04.493Z,14.04
2023-04-02T11:52:37.882Z,14.09
2023-04-02T11:55:40.074Z,14.12
2023-04-02T11:58:48.918Z,14.20
2023-04-02T12:01:43.673Z,14.33
2023-04-02T12:04:50.726Z,14.46
2023-04-02T12:07:34.670Z,14.51
2023-04-02T12:10:11.984Z,14.53
2023-04-02T12:12:42.317Z,14.54
2023-04-02T12:15:33.782Z,14.58
2023-04-02T12:18:15.626Z,14.60
2023-04-02T12:20:49.644Z,14.64
2023-04-02T12:23:24.064Z,14.67
2023-04-02T12:25:58.653Z,14.75
2023-04-02T12:28:30.662Z,14.80
2023-04-02T12:31:14.456Z,14.86
2023-04-02T12:33:43.931Z,14.92
2023-04-02T12:36:21.091Z,14.91
2023-04-02T12:38:51.798Z,14.91
2023-04-02T12:41:24.522Z,14.92
2023-04-02T12:44:01.064Z,14.96
2023-04-02T12:46:31.509Z,15.00
2023-04-02T12:49:05.564Z,15.01
2023-04-02T12:51:35.684Z,14.99
2023-04-02T12:54:05.594Z,14.99
2023-04-02T12:56:35.190Z,15.03
2023-04-02T12:59:04.296Z,15.06
2023-04-02T13:01:33.352Z,15.08
2023-04-02T13:04:04.574Z,15.11
2023-04-02T13:06:35.612Z,15.12
2023-04-02T13:09:06.841Z,15.09
2023-04-02T13:11:38.310Z,15.09
2023-04-02T13:14:16.645Z,15.10
2023-04-02T13:16:45.713Z,15.07
2023-04-02T13:19:28.983Z,15.05
2023-04-02T13:21:59.651Z,15.05
2023-04-02T13:24:30.503Z,15.06
2023-04-02T13:27:01.447Z,15.08
2023-04-02T13:29:31.965Z,15.11
2023-04-02T13:32:02.794Z,15.16
2023-04-02T13:34:32.148Z,15.19
2023-04-02T13:37:01.175Z,15.20
2023-04-02T13:39:30.338Z,15.22
2023-04-02T13:42:02.053Z,15.26
2023-04-02T13:44:33.762Z,15.30
2023-04-02T13:47:02.684Z,15.34
2023-04-02T13:49:32.490Z,15.31
2023-04-02T13:52:04.434Z,15.28
2023-04-02T13:54:41.086Z,15.24
2023-04-02T13:57:11.089Z,15.25
2023-04-02T13:59:40.213Z,15.23
2023-04-02T14:02:13.669Z,15.22
2023-04-02T14:04:48.653Z,15.21
2023-04-02T14:07:36.378Z,15.20
2023-04-02T14:10:21.034Z,15.18
2023-04-02T14:13:08.614Z,15.19
2023-04-02T14:15:58.266Z,15.17
2023-04-02T14:18:42.243Z,15.18
2023-04-02T14:21:20.688Z,15.20
2023-04-02T14:24:05.052Z,15.22
2023-04-02T14:26:43.321Z,15.23
2023-04-02T14:29:20.658Z,15.22
2023-04-02T14:31:57.337Z,15.22
2023-04-02T14:34:37.488Z,15.19
2023-04-02T14:37:13.966Z,15.17
2023-04-02T14:39:50.653Z,15.16
2023-04-02T14:42:26.567Z,15.15
2023-04-02T14:45:02.384Z,15.12
2023-04-02T14:47:37.259Z,15.12
2023-04-02T14:50:13.455Z,15.11
2023-04-02T14:52:47.951Z,15.06
2023-04-02T14:55:26.210Z,14.93
2023-04-02T14:57:56.279Z,14.81
2023-04-02T15:00:32.806Z,14.70
2023-04-02T15:03:11.175Z,14.59
2023-04-02T15:05:43.462Z,14.51
2023-04-02T15:08:19.170Z,14.48
2023-04-02T15:10:54.268Z,14.46
2023-04-02T15:13:30.560Z,14.46
2023-04-02T15:16:08.997Z,14.46
2023-04-02T15:18:40.176Z,14.47
2023-04-02T15:21:49.786Z,14.49
2023-04-02T15:24:33.525Z,14.50
2023-04-02T15:27:24.541Z,14.51
2023-04-02T15:30:02.563Z,14.52
2023-04-02T15:32:38.116Z,14.52
2023-04-02T15:35:16.519Z,14.53
2023-04-02T15:37:52.683Z,14.50
2023-04-02T15:40:34.746Z,14.43
2023-04-02T15:43:14.263Z,14.37
2023-04-02T15:45:57.397Z,14.27
2023-04-02T15:48:51.359Z,14.20
2023-04-02T15:51:33.917Z,14.12
2023-04-02T15:54:12.740Z,14.01
2023-04-02T15:56:53.572Z,13.93
2023-04-02T15:59:37.467Z,13.84
2023-04-02T16:02:25.306Z,13.72
2023-04-02T16:05:02.895Z,13.65
2023-04-02T16:07:54.377Z,13.59
2023-04-02T16:10:40.075Z,13.53
2023-04-02T16:13:17.934Z,13.45
2023-04-02T16:15:52.405Z,13.44
2023-04-02T16:18:35.022Z,13.41
2023-04-02T16:21:04.589Z,13.42
2023-04-02T16:23:36.568Z,13.38
2023-04-02T16:26:23.406Z,13.36
2023-04-02T16:29:04.047Z,13.32
2023-04-02T16:31:42.165Z,13.18
2023-04-02T16:34:16.391Z,13.10
2023-04-02T16:36:54.891Z,13.10
2023-04-02T16:39:34.988Z,12.99
2023-04-02T16:42:15.907Z,12.91
2023-04-02T16:44:58.056Z,12.84
2023-04-02T16:47:50.003Z,12.80
2023-04-02T16:50:32.698Z,12.74
2023-04-02T16:53:15.170Z,12.68
2023-04-02T16:55:55.075Z,12.64
2023-04-02T16:58:40.493Z,12.59
2023-04-02T17:01:19.913Z,12.58
2023-04-02T17:04:22.243Z,12.57
2023-04-02T17:07:00.599Z,12.57
2023-04-02T17:09:37.586Z,12.58
2023-04-02T17:12:17.636Z,12.54
2023-04-02T17:14:52.014Z,12.46
2023-04-02T17:17:22.428Z,12.36
2023-04-02T17:19:55.854Z,12.24
2023-04-02T17:22:24.811Z,12.26
2023-04-02T17:24:56.820Z,12.27
2023-04-02T17:27:32.295Z,12.33
2023-04-02T17:30:12.272Z,12.39
2023-04-02T17:32:42.124Z,12.39
2023-04-02T17:35:31.506Z,12.36
2023-04-02T17:38:08.572Z,12.31
2023-04-02T17:40:46.348Z,12.26
2023-04-02T17:43:26.475Z,12.23
2023-04-02T17:46:01.689Z,12.22
2023-04-02T17:48:40.567Z,12.22
2023-04-02T17:51:17.880Z,12.23
2023-04-02T17:53:57.414Z,12.26
2023-04-02T17:56:40.647Z,12.31
2023-04-02T17:59:23.068Z,12.36
2023-04-02T18:02:04.522Z,12.40
2023-04-02T18:04:41.719Z,12.42
2023-04-02T18:07:29.797Z,12.44
2023-04-02T18:10:07.636Z,12.45
2023-04-02T18:12:51.070Z,12.44
2023-04-02T18:15:39.029Z,12.45
2023-04-02T18:18:18.749Z,12.49
2023-04-02T18:21:04.124Z,12.52
2023-04-02T18:23:48.411Z,12.55
2023-04-02T18:26:27.485Z,12.58
2023-04-02T18:29:04.624Z,12.64
2023-04-02T18:31:42.237Z,12.66
2023-04-02T18:34:35.312Z,12.68
2023-04-02T18:37:16.716Z,12.71
2023-04-02T18:40:01.098Z,12.75
2023-04-02T18:42:46.901Z,12.80
2023-04-02T18:45:22.155Z,12.85
2023-04-02T18:48:05.479Z,12.87
2023-04-02T18:50:36.433Z,12.87
2023-04-02T18:53:12.733Z,12.88
2023-04-02T18:55:46.611Z,12.89
2023-04-02T18:58:24.881Z,12.89
2023-04-02T19:00:55.626Z,12.91
2023-04-02T19:03:29.879Z,12.93
2023-04-02T19:06:02.838Z,12.94
2023-04-02T19:08:38.151Z,12.94
2023-04-02T19:11:11.838Z,12.94
2023-04-02T19:13:41.104Z,12.94
2023-04-02T19:16:37.387Z,12.92
2023-04-02T19:19:17.442Z,12.89
2023-04-02T19:22:08.075Z,12.85
2023-04-02T19:24:54.456Z,12.81
2023-04-02T19:27:28.000Z,12.81
2023-04-02T19:30:12.899Z,12.80
2023-04-02T19:32:51.215Z,12.79
2023-04-02T19:35:27.012Z,12.77
2023-04-02T19:38:06.415Z,12.74
2023-04-02T19:40:46.076Z,12.69
2023-04-02T19:43:15.459Z,12.65
2023-04-02T19:45:47.274Z,12.67
2023-04-02T19:48:18.763Z,12.64
2023-04-02T19:50:49.177Z,12.64
2023-04-02T19:53:19.205Z,12.58
2023-04-02T19:55:48.247Z,12.58
2023-04-02T19:58:26.205Z,12.55
2023-04-02T20:00:55.565Z,12.47
2023-04-02T20:03:24.590Z,12.44
2023-04-02T20:05:54.164Z,12.44
2023-04-02T20:08:23.113Z,12.40
2023-04-02T20:10:52.110Z,12.37
2023-04-02T20:13:21.102Z,12.35
2023-04-02T20:15:50.968Z,12.33
2023-04-02T20:18:20.436Z,12.34
2023-04-02T20:20:49.777Z,12.28
2023-04-02T20:23:19.596Z,12.32
2023-04-02T20:25:52.460Z,12.32
2023-04-02T20:28:21.872Z,12.29
2023-04-02T20:30:51.381Z,12.14
2023-04-02T20:33:22.360Z,12.00
2023-04-02T20:35:52.237Z,11.89
2023-04-02T20:38:21.214Z,11.77
2023-04-02T20:40:53.867Z,11.64
2023-04-02T20:43:22.986Z,11.54
2023-04-02T20:45:55.882Z,11.46
2023-04-02T20:48:26.836Z,11.40
2023-04-02T20:50:56.254Z,11.34
2023-04-02T20:53:25.817Z,11.29
2023-04-02T20:56:04.984Z,11.23
2023-04-02T20:58:34.502Z,11.09
2023-04-02T21:01:11.795Z,11.11
2023-04-02T21:03:40.807Z,11.15
2023-04-02T21:06:14.876Z,11.21
2023-04-02T21:08:44.335Z,11.27
2023-04-02T21:11:13.473Z,11.30
2023-04-02T21:13:43.420Z,11.29
2023-04-02T21:16:16.840Z,11.31
2023-04-02T21:18:47.342Z,11.27
2023-04-02T21:21:17.258Z,11.18
2023-04-02T21:23:46.483Z,11.09
2023-04-02T21:26:17.327Z,11.05
2023-04-02T21:28:46.648Z,11.04
2023-04-02T21:31:17.444Z,10.97
2023-04-02T21:33:48.449Z,10.94
2023-04-02T21:36:19.529Z,10.95
2023-04-02T21:38:50.438Z,10.96
2023-04-02T21:41:21.757Z,10.97
2023-04-02T21:43:51.098Z,11.01
2023-04-02T21:46:22.266Z,11.04
2023-04-02T21:48:52.470Z,11.07
2023-04-02T21:51:24.381Z,11.10
2023-04-02T21:53:53.624Z,11.11
2023-04-02T21:56:24.310Z,11.14
2023-04-02T21:58:53.872Z,11.16
2023-04-02T22:01:27.851Z,11.20
2023-04-02T22:03:59.496Z,11.24
2023-04-02T22:06:29.938Z,11.29
2023-04-02T22:09:00.975Z,11.31
2023-04-02T22:11:32.140Z,11.31
2023-04-02T22:14:02.750Z,11.31
2023-04-02T22:16:33.975Z,11.33
2023-04-02T22:19:06.076Z,11.35
2023-04-02T22:21:36.352Z,11.37
2023-04-02T22:24:08.524Z,11.35
2023-04-02T22:26:39.694Z,11.33
2023-04-02T22:29:09.228Z,11.32
2023-04-02T22:31:38.721Z,11.32
2023-04-02T22:34:07.730Z,11.35
2023-04-02T22:36:36.894Z,11.36
2023-04-02T22:39:09.815Z,11.37
2023-04-02T22:41:39.216Z,11.37
2023-04-02T22:44:12.681Z,11.37
2023-04-02T22:46:41.827Z,11.33
2023-04-02T22:49:11.908Z,11.31
2023-04-02T22:51:40.892Z,11.30
2023-04-02T22:54:09.923Z,11.27
2023-04-02T22:56:38.981Z,11.23
2023-04-02T22:59:07.904Z,11.22
2023-04-02T23:01:37.292Z,11.16
2023-04-02T23:04:06.287Z,11.21
2023-04-02T23:06:35.368Z,11.16
2023-04-02T23:09:04.702Z,11.21
2023-04-02T23:11:33.687Z,11.20
2023-04-02T23:14:02.821Z,11.16
2023-04-02T23:16:31.899Z,11.10
2023-04-02T23:19:00.986Z,11.05
2023-04-02T23:21:30.622Z,11.04
2023-04-02T23:23:59.803Z,11.05
2023-04-02T23:26:30.809Z,11.07
2023-04-02T23:29:01.347Z,11.08
2023-04-02T23:31:30.954Z,11.08
2023-04-02T23:34:00.171Z,11.09
2023-04-02T23:36:31.141Z,11.06
2023-04-02T23:39:01.862Z,11.08
2023-04-02T23:41:31.656Z,11.05
2023-04-02T23:44:00.949Z,11.07
2023-04-02T23:46:31.103Z,11.08
2023-04-02T23:49:00.981Z,11.06
2023-04-02T23:51:31.229Z,11.09
2023-04-02T23:54:00.704Z,11.08
2023-04-02T23:56:29.634Z,11.08
2023-04-02T23:58:58.513Z,11.08
